Impacts METAR Board
IDs:

KDEN - Denver Intl, CO, US

Updated at: 2000 UTC 21 Sep 2021
Potential Impact None Slight Moderate High
Time 21/08Z 21/09Z 21/10Z 21/11Z 21/12Z 21/13Z 21/14Z 21/15Z 21/16Z 21/17Z 21/18Z 21/19Z 21/20Z
Temp46 45 43 43 44 42 45 48 53 55 57 60 62
Dewpt40 40 39 39 38 38 40 39 33 33 30 26 22
Altim30.44 30.47 30.47 30.49 30.51 30.53 30.55 30.57 30.58 30.58 30.56 30.53 30.49
VIS10 10 10 10 10 10 10 10 10 10 10 10 10
CIG27 38 -- -- -- -- -- -- -- -- -- -- --
CoverOVCBKNSCTFEWFEWFEWFEWFEWFEWFEWFEWFEWFEW
FltCatMVFRVFRVFRVFRVFRVFRVFRVFRVFRVFRVFRVFRVFR
WX--------------------------
WDir40350360350270230220210208036020040
WSpd5 3 5 3 3 3 6 4 6 5 6 5 4
WGst-- -- -- -- -- -- -- -- -- -- -- -- --
Raw hourly METARs
KDEN 210753Z 04005KT 10SM BKN027 OVC050 08/04 A3044 RMK AO2 SLP266 VCSH T00780044
KDEN 210853Z 35003KT 10SM FEW020 BKN038 BKN044 07/04 A3047 RMK AO2 RAB14E37 SLP274 VCSH P0000 60001 T00720044 53013
KDEN 210953Z 36005KT 10SM FEW030 FEW095 SCT120 06/04 A3047 RMK AO2 RAB06E16 SLP278 P0000 T00610039
KDEN 211053Z 35003KT 10SM FEW030 FEW100 06/04 A3049 RMK AO2 SLP284 T00610039
KDEN 211153Z 27003KT 10SM FEW030 07/03 A3051 RMK AO2 SLP290 60001 70002 T00670033 10089 20056 53012
KDEN 211253Z 23003KT 10SM FEW080 06/03 A3053 RMK AO2 SLP306 T00560033
KDEN 211353Z 22006KT 10SM FEW040 07/04 A3055 RMK AO2 SLP314 T00720044
KDEN 211453Z 21004KT 10SM FEW050 FEW090 09/04 A3057 RMK AO2 SLP322 T00890039 51019
KDEN 211553Z 02006KT 10SM FEW060 FEW200 12/01 A3058 RMK AO2 SLP322 T01170006
KDEN 211653Z 08005KT 10SM FEW070 FEW200 13/01 A3058 RMK AO2 SLP323 T01280006
KDEN 211753Z 36006KT 10SM FEW070 FEW200 14/M01 A3056 RMK AO2 SLP313 T01391011 10144 20039 58003
KDEN 211853Z 20005KT 10SM FEW080 FEW220 16/M03 A3053 RMK AO2 SLP303 T01561033
KDEN 211955Z 04004KT 10SM FEW080 FEW220 17/M06 A3049 RMK AO2 T01671056



Page loaded:  20:01 UTC  |   01:01 PM Pacific  |   02:01 PM Mountain  |   03:01 PM Central  |   04:01 PM Eastern

 

ADVISORIES

FORECASTS

FORECASTS

OBSERVATIONS

USER TOOLS

ABOUT US